Time;durP1;ratioP1;P1;durP2;ratioP2;P2;SDS_P1;SDS_P2;PMS_P1;PMS_P2;Temp;Humidity;BMP_temperature;BMP_pressure;BME280_temperature;BME280_humidity;BME280_pressure;Samples;Min_cycle;Max_cycle;Signal;HPM_P1;HPM_P2
2024/01/06 00:00:49;;;;;;;;;28.25;21.00;;;;;6.64;100.00;100704.44;5032762;28;45467;-83
2024/01/06 00:03:15;;;;;;;;;15.00;15.00;;;;;6.11;100.00;100629.13;5031909;28;45502;-82
2024/01/06 00:05:42;;;;;;;;;21.50;20.75;;;;;6.14;100.00;100613.28;5052992;28;45791;-84
2024/01/06 00:08:11;;;;;;;;;28.33;24.67;;;;;6.07;100.00;100625.75;5036937;28;45474;-83
2024/01/06 00:11:08;;;;;;;;;26.25;22.00;;;;;5.97;100.00;100605.09;5043133;28;45463;-84
2024/01/06 00:13:37;;;;;;;;;29.00;23.00;;;;;5.79;100.00;100567.13;5028128;28;45520;-83
2024/01/06 00:16:12;;;;;;;;;22.00;20.50;;;;;6.19;100.00;100630.59;5033892;28;46018;-83
2024/01/06 00:18:39;;;;;;;;;17.50;15.50;;;;;5.96;100.00;100584.97;5052248;28;47120;-83
2024/01/06 00:21:18;;;;;;;;;27.25;22.25;;;;;5.71;100.00;100564.75;5035996;28;45616;-84
2024/01/06 00:23:57;;;;;;;;;21.25;19.75;;;;;6.71;100.00;100731.38;5055503;28;45417;-83
2024/01/06 00:26:34;;;;;;;;;17.50;16.50;;;;;6.55;100.00;100701.25;5042980;28;45474;-84
2024/01/06 00:29:18;;;;;;;;;21.25;21.00;;;;;6.66;100.00;100700.00;5040898;28;45545;-83
2024/01/06 00:31:44;;;;;;;;;25.00;23.33;;;;;5.84;100.00;100580.09;5040117;28;45489;-83
2024/01/06 00:34:09;;;;;;;;;25.00;21.00;;;;;6.21;100.00;100620.06;5041131;28;45369;-83
2024/01/06 00:36:35;;;;;;;;;22.00;21.00;;;;;6.20;100.00;100632.34;5041144;28;45523;-83
2024/01/06 00:39:04;;;;;;;;;24.75;20.75;;;;;6.17;100.00;100626.31;5040408;28;47274;-83
2024/01/06 00:41:30;;;;;;;;;21.00;21.00;;;;;5.82;100.00;100574.91;5052137;28;45368;-83
2024/01/06 00:43:57;;;;;;;;;26.00;22.50;;;;;6.07;100.00;100599.50;5039706;28;45332;-83
2024/01/06 00:46:29;;;;;;;;;28.25;23.50;;;;;6.09;100.00;100602.91;5056203;28;45404;-82
2024/01/06 00:48:54;;;;;;;;;19.75;19.25;;;;;6.05;100.00;100597.84;5037021;28;46292;-82
2024/01/06 00:51:22;;;;;;;;;20.25;18.50;;;;;6.35;100.00;100675.59;5036353;28;45487;-83
2024/01/06 00:54:39;;;;;;;;;23.75;19.50;;;;;5.84;100.00;100583.59;5043468;28;45344;-83
2024/01/06 00:57:11;;;;;;;;;25.75;20.25;;;;;5.91;100.00;100623.66;5037832;28;45336;-82
2024/01/06 00:59:37;;;;;;;;;24.50;21.50;;;;;6.22;100.00;100653.28;5039060;28;45601;-83
2024/01/06 01:02:10;;;;;;;;;27.75;23.50;;;;;5.85;100.00;100601.06;5040994;28;45317;-83
2024/01/06 01:04:38;;;;;;;;;26.25;24.00;;;;;5.82;100.00;100601.16;5039267;28;45555;-82
2024/01/06 01:07:04;;;;;;;;;23.75;22.75;;;;;5.96;100.00;100629.59;5039316;28;45317;-84
2024/01/06 01:09:30;;;;;;;;;22.25;18.50;;;;;6.45;100.00;100726.94;5055704;28;47244;-84
2024/01/06 01:11:59;;;;;;;;;19.00;17.50;;;;;5.73;100.00;100601.41;5043631;28;45746;-83
2024/01/06 01:14:24;;;;;;;;;24.25;23.75;;;;;5.58;100.00;100589.63;5057033;28;45489;-83
2024/01/06 01:16:50;;;;;;;;;18.00;18.00;;;;;6.00;100.00;100681.97;5043366;28;45711;-84
2024/01/06 01:19:18;;;;;;;;;13.00;9.00;;;;;5.87;100.00;100670.13;5039692;28;45406;-83
2024/01/06 01:21:44;;;;;;;;;22.50;19.50;;;;;6.36;100.00;100753.50;5037519;28;45281;-82
2024/01/06 01:24:11;;;;;;;;;29.25;24.00;;;;;5.69;100.00;100657.53;5055734;28;45341;-83
2024/01/06 01:26:39;;;;;;;;;29.50;22.50;;;;;5.80;100.00;100679.03;5035961;28;45444;-83
2024/01/06 01:29:05;;;;;;;;;22.00;20.50;;;;;5.91;100.00;100676.13;5025379;28;48330;-83
2024/01/06 01:31:30;;;;;;;;;21.75;20.25;;;;;5.93;100.00;100695.31;5034254;28;45352;-83
2024/01/06 01:34:00;;;;;;;;;26.50;22.50;;;;;5.67;100.00;100690.81;5040718;28;45624;-83
2024/01/06 01:36:30;;;;;;;;;26.75;22.75;;;;;5.42;100.00;100614.59;5054809;28;45550;-82
2024/01/06 01:39:00;;;;;;;;;22.25;21.00;;;;;5.56;100.00;100666.66;5035302;28;46155;-83
2024/01/06 01:41:26;;;;;;;;;23.50;22.00;;;;;5.52;100.00;100660.66;5050035;28;45460;-83
2024/01/06 01:43:58;;;;;;;;;24.75;23.75;;;;;6.01;100.00;100745.84;5068511;28;45474;-83
2024/01/06 01:46:43;;;;;;;;;25.25;23.00;;;;;5.51;100.00;100669.41;5040217;28;45862;-83
2024/01/06 01:49:11;;;;;;;;;25.00;23.25;;;;;5.33;100.00;100616.63;5038816;28;46388;-83
2024/01/06 01:51:39;;;;;;;;;17.25;17.25;;;;;5.40;100.00;100657.50;5049904;28;45432;-84
2024/01/06 01:54:08;;;;;;;;;22.00;20.00;;;;;5.44;100.00;100648.63;5037984;28;45373;-83
2024/01/06 01:56:40;;;;;;;;;19.00;17.25;;;;;5.24;100.00;100639.56;5039371;28;45442;-83
2024/01/06 01:59:17;;;;;;;;;25.25;19.00;;;;;5.54;100.00;100674.56;5037678;28;48266;-83
2024/01/06 02:01:42;;;;;;;;;18.50;17.00;;;;;5.28;100.00;100629.88;5037931;28;45311;-83
2024/01/06 02:04:09;;;;;;;;;24.50;17.25;;;;;6.08;100.00;100802.50;5037533;28;45454;-83
2024/01/06 02:06:51;;;;;;;;;18.00;16.75;;;;;5.12;100.00;100629.44;5034745;28;45464;-85
2024/01/06 02:09:26;;;;;;;;;;;;;;;;;;;;;
2024/01/06 02:12:02;;;;;;;;;18.25;16.25;;;;;5.51;100.00;100698.25;5029913;28;72301;-84
2024/01/06 02:14:50;;;;;;;;;23.50;18.75;;;;;5.48;100.00;100687.84;5056456;28;45658;-84
2024/01/06 02:21:07;;;;;;;;;;;;;;;;;;;;;
2024/01/06 02:23:46;;;;;;;;;21.25;17.25;;;;;5.01;100.00;100635.84;5018491;28;71371;-84
2024/01/06 02:26:19;;;;;;;;;21.00;20.00;;;;;5.84;100.00;100780.41;5034014;28;45430;-83
2024/01/06 02:29:09;;;;;;;;;16.75;16.75;;;;;5.54;100.00;100713.91;5035601;28;45483;-84
2024/01/06 02:31:46;;;;;;;;;16.75;13.50;;;;;5.93;100.00;100777.53;5038525;28;45583;-83
2024/01/06 02:34:34;;;;;;;;;18.00;17.00;;;;;5.78;100.00;100780.59;5033241;28;45370;-84
2024/01/06 02:37:00;;;;;;;;;15.00;14.00;;;;;5.30;100.00;100698.00;5046769;28;45468;-83
2024/01/06 02:39:29;;;;;;;;;23.00;20.75;;;;;5.04;100.00;100665.47;5054511;28;45599;-83
2024/01/06 02:42:10;;;;;;;;;22.25;18.75;;;;;5.32;100.00;100704.91;5053235;28;47488;-84
2024/01/06 02:44:38;;;;;;;;;16.00;13.25;;;;;6.01;100.00;100849.09;5038440;28;45640;-85
2024/01/06 02:47:13;;;;;;;;;19.75;19.75;;;;;5.46;100.00;100715.03;5055183;28;45431;-84
2024/01/06 02:49:41;;;;;;;;;21.00;19.00;;;;;5.47;100.00;100727.22;5037255;28;45399;-84
2024/01/06 02:52:15;;;;;;;;;20.25;18.75;;;;;5.19;100.00;100722.75;5036993;28;47293;-84
2024/01/06 02:54:41;;;;;;;;;25.75;22.00;;;;;5.10;100.00;100677.56;5039946;28;45340;-83
2024/01/06 02:57:14;;;;;;;;;21.75;21.25;;;;;5.47;100.00;100741.19;5038576;28;45517;-84
2024/01/06 02:59:50;;;;;;;;;;;;;;;;;;;;;
2024/01/06 03:02:19;;;;;;;;;18.00;17.75;;;;;5.37;100.00;100751.97;5031951;28;75086;-84
2024/01/06 03:05:02;;;;;;;;;24.00;21.25;;;;;5.09;100.00;100715.16;5037052;28;45564;-83
2024/01/06 03:07:41;;;;;;;;;;;;;;;;;;;;;
2024/01/06 03:10:07;;;;;;;;;24.50;23.25;;;;;5.58;100.00;100769.78;5036660;28;72624;-84
2024/01/06 03:12:33;;;;;;;;;26.25;24.00;;;;;5.31;100.00;100718.06;5053644;28;46507;-83
2024/01/06 03:15:06;;;;;;;;;20.25;20.25;;;;;5.91;100.00;100849.38;5043784;28;45431;-83
2024/01/06 03:17:32;;;;;;;;;22.25;20.00;;;;;5.42;100.00;100765.84;5036882;28;45416;-83
2024/01/06 03:19:59;;;;;;;;;23.00;21.00;;;;;5.25;100.00;100696.34;5037746;28;45656;-83
2024/01/06 03:22:28;;;;;;;;;20.25;18.25;;;;;5.33;100.00;100734.63;5058488;28;47133;-84
2024/01/06 03:24:57;;;;;;;;;19.75;19.75;;;;;5.26;100.00;100712.97;5052381;28;45336;-83
2024/01/06 03:27:22;;;;;;;;;27.00;22.25;;;;;5.42;100.00;100739.63;5052612;28;45407;-82
2024/01/06 03:29:48;;;;;;;;;22.00;20.50;;;;;6.15;100.00;100832.94;5054250;28;45421;-83
2024/01/06 03:32:17;;;;;;;;;22.75;21.25;;;;;5.30;100.00;100714.56;5036611;28;45591;-82
2024/01/06 03:34:43;;;;;;;;;16.75;15.50;;;;;5.51;100.00;100732.34;5037079;28;45478;-82
2024/01/06 03:37:14;;;;;;;;;23.75;20.50;;;;;6.05;100.00;100828.84;5033482;28;45333;-83
2024/01/06 03:39:40;;;;;;;;;24.50;20.25;;;;;5.61;100.00;100749.56;5036753;28;45490;-83
2024/01/06 03:42:06;;;;;;;;;24.00;21.25;;;;;5.69;100.00;100746.75;5037877;28;46310;-82
2024/01/06 03:44:33;;;;;;;;;23.50;19.75;;;;;5.78;100.00;100780.59;5028831;28;45270;-83
2024/01/06 03:47:02;;;;;;;;;19.00;16.50;;;;;5.74;100.00;100773.69;5041864;28;45334;-82
2024/01/06 03:49:31;;;;;;;;;23.50;23.50;;;;;6.00;100.00;100789.59;5046800;28;45438;-83
2024/01/06 03:52:07;;;;;;;;;19.25;17.25;;;;;5.87;100.00;100788.22;5029961;28;46584;-83
2024/01/06 03:54:33;;;;;;;;;20.25;17.50;;;;;5.49;100.00;100694.84;5029690;28;45430;-83
2024/01/06 03:56:59;;;;;;;;;22.00;18.75;;;;;6.12;100.00;100796.25;5028472;28;45260;-81
2024/01/06 03:59:25;;;;;;;;;21.50;17.50;;;;;5.86;100.00;100778.63;5045895;28;45372;-83
2024/01/06 04:01:53;;;;;;;;;25.25;21.25;;;;;5.67;100.00;100720.53;5039923;28;45484;-83
2024/01/06 04:04:19;;;;;;;;;15.25;13.25;;;;;6.48;100.00;100862.63;5039453;28;45460;-82
2024/01/06 04:06:47;;;;;;;;;23.00;23.00;;;;;6.00;100.00;100786.97;5040106;28;45367;-83
2024/01/06 04:09:17;;;;;;;;;26.25;22.25;;;;;5.57;100.00;100715.56;5035701;28;45543;-84
2024/01/06 04:11:43;;;;;;;;;23.00;21.00;;;;;5.73;100.00;100743.09;5020602;28;47300;-84
2024/01/06 04:14:08;;;;;;;;;17.25;16.00;;;;;6.31;100.00;100825.47;5042250;28;45316;-84
2024/01/06 04:16:43;;;;;;;;;21.25;18.00;;;;;5.63;100.00;100724.13;5044136;28;45711;-83
2024/01/06 04:19:11;;;;;;;;;18.67;18.00;;;;;6.06;100.00;100786.78;5030042;28;45371;-83
2024/01/06 04:21:36;;;;;;;;;20.00;18.33;;;;;5.69;100.00;100734.44;5030217;28;45543;-83
2024/01/06 04:24:01;;;;;;;;;20.00;19.00;;;;;5.92;100.00;100793.34;5051535;28;45288;-83
2024/01/06 04:26:27;;;;;;;;;19.33;19.33;;;;;6.07;100.00;100809.53;5054215;28;45352;-83
2024/01/06 04:28:52;;;;;;;;;16.00;14.00;;;;;5.85;100.00;100753.28;5036591;28;45304;-83
2024/01/06 04:31:26;;;;;;;;;17.00;16.25;;;;;5.93;100.00;100782.78;5020638;28;46742;-85
2024/01/06 04:34:11;;;;;;;;;;;;;;;;;;;;;
2024/01/06 04:36:51;;;;;;;;;21.75;19.75;;;;;6.62;100.00;100878.81;5026939;28;70058;-85
2024/01/06 04:39:26;;;;;;;;;24.50;20.25;;;;;6.49;100.00;100882.72;5039275;28;45454;-84
2024/01/06 04:41:52;;;;;;;;;22.25;20.00;;;;;5.88;100.00;100768.97;5036405;28;46734;-84
2024/01/06 04:44:33;;;;;;;;;23.25;21.25;;;;;5.98;100.00;100801.06;5028120;28;45477;-84
2024/01/06 04:47:19;;;;;;;;;21.00;19.00;;;;;6.69;100.00;100890.88;5062723;28;45323;-84
2024/01/06 04:49:45;;;;;;;;;26.00;21.00;;;;;6.70;100.00;100916.25;5055622;28;45234;-83
2024/01/06 04:52:14;;;;;;;;;28.25;27.00;;;;;6.55;100.00;100906.19;5038731;28;47026;-83
2024/01/06 04:54:40;;;;;;;;;28.00;26.25;;;;;5.79;100.00;100756.91;5038832;28;45598;-83
2024/01/06 04:57:05;;;;;;;;;32.25;29.75;;;;;5.99;100.00;100776.53;5045118;28;45472;-83
2024/01/06 04:59:31;;;;;;;;;32.50;29.25;;;;;5.92;100.00;100769.72;5041964;28;45498;-83
2024/01/06 05:02:00;;;;;;;;;28.25;25.25;;;;;6.61;100.00;100885.84;5038761;28;47876;-83
2024/01/06 05:04:34;;;;;;;;;28.00;25.25;;;;;5.93;100.00;100790.66;5038549;28;45517;-83
2024/01/06 05:07:20;;;;;;;;;35.50;30.75;;;;;6.09;100.00;100804.22;5040035;28;45507;-84
2024/01/06 05:09:55;;;;;;;;;24.75;23.25;;;;;6.77;100.00;100904.66;5038758;28;45490;-84
2024/01/06 05:12:42;;;;;;;;;24.50;21.50;;;;;5.86;100.00;100767.28;5051257;28;48123;-83
2024/01/06 05:15:12;;;;;;;;;22.00;20.75;;;;;6.22;100.00;100822.19;5050011;28;45500;-84
2024/01/06 05:17:38;;;;;;;;;24.75;19.50;;;;;6.79;100.00;100942.25;5046798;28;45278;-85
2024/01/06 05:20:04;;;;;;;;;21.75;20.25;;;;;6.31;100.00;100857.84;5039868;28;45535;-83
2024/01/06 05:22:29;;;;;;;;;23.00;20.67;;;;;6.02;100.00;100806.16;5039069;28;45729;-83
2024/01/06 05:25:00;;;;;;;;;22.33;18.00;;;;;5.69;100.00;100760.69;5039170;28;45282;-84
2024/01/06 05:27:34;;;;;;;;;20.00;18.67;;;;;5.92;100.00;100804.72;5039715;28;45234;-84
2024/01/06 05:30:10;;;;;;;;;21.50;19.50;;;;;5.86;100.00;100801.41;5038805;28;45364;-83
2024/01/06 05:32:37;;;;;;;;;19.33;16.00;;;;;5.75;100.00;100775.41;5054758;28;46304;-84
2024/01/06 05:35:13;;;;;;;;;19.67;17.33;;;;;5.69;100.00;100810.53;5038438;28;45306;-84
2024/01/06 05:37:41;;;;;;;;;17.50;14.00;;;;;5.97;100.00;100863.19;5040965;28;45471;-84
2024/01/06 05:40:30;;;;;;;;;26.33;17.67;;;;;5.72;100.00;100839.34;5054882;28;45482;-83
2024/01/06 05:43:07;;;;;;;;;21.00;20.25;;;;;5.44;100.00;100761.41;5054465;28;45674;-83
2024/01/06 05:45:44;;;;;;;;;20.00;19.25;;;;;5.37;100.00;100762.47;5058460;28;45461;-83
2024/01/06 05:48:13;;;;;;;;;27.50;23.25;;;;;6.29;100.00;100955.06;5036527;28;45594;-84
2024/01/06 05:50:40;;;;;;;;;21.75;20.50;;;;;5.32;100.00;100767.84;5037746;28;45587;-83
2024/01/06 05:53:24;;;;;;;;;;;;;;;;;;;;;
2024/01/06 05:55:50;;;;;;;;;16.00;16.00;;;;;5.31;100.00;100810.69;5035368;28;72388;-84
2024/01/06 05:58:21;;;;;;;;;18.50;15.50;;;;;5.44;100.00;100837.47;5033479;28;45495;-84
2024/01/06 06:01:08;;;;;;;;;20.75;18.00;;;;;5.13;100.00;100775.34;5036444;28;45471;-84
2024/01/06 06:03:49;;;;;;;;;;;;;;;;;;;;;
2024/01/06 06:06:43;;;;;;;;;19.00;17.67;;;;;5.85;100.00;100942.22;5053085;28;71738;-83
2024/01/06 06:09:13;;;;;;;;;22.75;18.75;;;;;5.16;100.00;100811.09;5059280;28;45365;-84
2024/01/06 06:11:51;;;;;;;;;20.25;19.25;;;;;5.07;100.00;100804.31;5042875;28;45447;-84
2024/01/06 06:14:20;;;;;;;;;17.75;17.50;;;;;5.63;100.00;100927.91;5052889;28;46487;-84
2024/01/06 06:17:12;;;;;;;;;27.50;23.00;;;;;5.28;100.00;100862.34;5041608;28;45484;-84
2024/01/06 06:20:06;;;;;;;;;23.75;21.25;;;;;5.04;100.00;100850.72;5035365;28;46363;-84
2024/01/06 06:22:34;;;;;;;;;23.50;21.25;;;;;5.30;100.00;100887.63;5023935;28;45478;-84
2024/01/06 06:25:03;;;;;;;;;21.75;20.75;;;;;5.42;100.00;100925.81;5040949;28;45503;-85
2024/01/06 06:27:32;;;;;;;;;19.50;18.75;;;;;5.57;100.00;100926.31;5050082;28;45533;-83
2024/01/06 06:30:10;;;;;;;;;18.50;17.00;;;;;5.95;100.00;100996.25;5039072;28;45317;-84
2024/01/06 06:33:25;;;;;;;;;16.00;13.67;;;;;5.25;100.00;100886.88;5036713;28;45581;-84
2024/01/06 06:35:51;;;;;;;;;25.00;21.75;;;;;5.35;100.00;100908.50;5063499;28;48378;-83
2024/01/06 06:38:16;;;;;;;;;24.50;21.50;;;;;5.96;100.00;100999.72;5053974;28;45494;-83
2024/01/06 06:40:53;;;;;;;;;22.75;17.25;;;;;5.89;100.00;100983.25;5038617;28;45471;-83
2024/01/06 06:43:18;;;;;;;;;21.25;17.75;;;;;5.44;100.00;100885.53;5047134;28;45477;-84
2024/01/06 06:45:51;;;;;;;;;18.50;18.00;;;;;5.99;100.00;101007.53;5043149;28;47819;-83
2024/01/06 06:48:17;;;;;;;;;21.00;16.00;;;;;5.27;100.00;100853.63;5038356;28;45462;-83
2024/01/06 06:50:52;;;;;;;;;24.25;23.00;;;;;5.72;100.00;100928.56;5053822;28;45455;-83
2024/01/06 06:53:22;;;;;;;;;24.00;22.00;;;;;6.07;100.00;101011.69;5037101;28;45440;-84
2024/01/06 06:55:50;;;;;;;;;24.75;19.50;;;;;5.59;100.00;100911.41;5036939;28;48145;-84
2024/01/06 06:58:17;;;;;;;;;30.75;24.25;;;;;5.70;100.00;100951.34;5038384;28;45659;-83
2024/01/06 07:00:45;;;;;;;;;17.00;14.25;;;;;5.59;100.00;100903.53;5053714;28;45454;-84
2024/01/06 07:03:15;;;;;;;;;32.25;31.25;;;;;6.05;100.00;100986.38;5038612;28;45518;-83
2024/01/06 07:05:51;;;;;;;;;31.25;29.25;;;;;5.52;100.00;100887.97;5054178;28;45455;-83
2024/01/06 07:08:21;;;;;;;;;26.50;23.75;;;;;5.73;100.00;100917.16;5039864;28;45580;-83
2024/01/06 07:10:47;;;;;;;;;28.75;24.50;;;;;5.62;100.00;100905.22;5040273;28;45312;-83
2024/01/06 07:13:16;;;;;;;;;23.25;23.25;;;;;6.16;100.00;101016.69;5047914;28;45605;-83
2024/01/06 07:15:44;;;;;;;;;26.00;21.25;;;;;5.98;100.00;101003.19;5040899;28;45751;-83
2024/01/06 07:18:10;;;;;;;;;22.50;20.50;;;;;5.78;100.00;100965.13;5044200;28;45452;-83
2024/01/06 07:20:50;;;;;;;;;22.25;22.25;;;;;5.65;100.00;100915.63;5038926;28;45390;-83
2024/01/06 07:23:21;;;;;;;;;24.67;20.00;;;;;6.49;100.00;101088.50;5036722;28;45559;-83
2024/01/06 07:26:01;;;;;;;;;;;;;;;;;;;;;
2024/01/06 07:29:10;;;;;;;;;18.75;14.00;;;;;5.69;100.00;100931.22;5029942;28;71760;-83
2024/01/06 07:31:41;;;;;;;;;24.00;17.25;;;;;5.74;100.00;100946.88;5028459;28;45989;-84
2024/01/06 07:34:20;;;;;;;;;19.67;18.33;;;;;6.09;100.00;100999.38;5056867;28;45482;-84
2024/01/06 07:36:46;;;;;;;;;19.67;17.00;;;;;5.76;100.00;100958.19;5041815;28;46399;-83
2024/01/06 07:39:11;;;;;;;;;23.00;21.00;;;;;5.84;100.00;100984.25;5041552;28;45379;-84
2024/01/06 07:41:59;;;;;;;;;21.50;17.25;;;;;6.32;100.00;101061.81;5062331;28;45288;-85
2024/01/06 07:44:38;;;;;;;;;19.75;15.75;;;;;5.77;100.00;100963.41;5044441;28;45287;-84
2024/01/06 07:47:14;;;;;;;;;16.33;16.33;;;;;6.55;100.00;101122.50;5043734;28;47657;-84
2024/01/06 07:50:04;;;;;;;;;;;;;;;;;;;;;
2024/01/06 07:52:50;;;;;;;;;20.67;14.33;;;;;6.05;100.00;101038.88;5036273;28;67611;-84
2024/01/06 07:55:18;;;;;;;;;15.00;14.00;;;;;6.04;100.00;101014.38;5042421;28;45515;-84
2024/01/06 07:57:44;;;;;;;;;20.00;15.00;;;;;5.97;100.00;101004.06;5039546;28;48202;-83
2024/01/06 08:00:13;;;;;;;;;22.33;18.00;;;;;6.49;100.00;101088.50;5039773;28;45592;-83
2024/01/06 08:02:40;;;;;;;;;22.00;13.00;;;;;6.16;100.00;101044.72;5036656;28;45342;-84
2024/01/06 08:05:08;;;;;;;;;14.67;12.67;;;;;5.77;100.00;100973.03;5042502;28;45705;-84
2024/01/06 08:07:37;;;;;;;;;17.33;14.00;;;;;6.30;100.00;101047.84;5043188;28;46561;-84
2024/01/06 08:10:08;;;;;;;;;12.00;9.33;;;;;5.88;100.00;100980.69;5045183;28;45379;-84
2024/01/06 08:13:21;;;;;;;;;15.00;9.00;;;;;5.83;100.00;100993.00;5047637;28;45494;-83
2024/01/06 08:15:50;;;;;;;;;16.33;13.33;;;;;5.99;100.00;101015.41;5035857;28;45523;-83
2024/01/06 08:18:19;;;;;;;;;17.67;12.67;;;;;6.22;100.00;101076.06;5036611;28;47431;-83
2024/01/06 08:20:47;;;;;;;;;9.00;9.00;;;;;5.99;100.00;101028.53;5056409;28;45466;-83
2024/01/06 08:23:13;;;;;;;;;19.33;10.00;;;;;6.59;100.00;101115.41;5062316;28;45459;-83
2024/01/06 08:25:38;;;;;;;;;11.67;10.00;;;;;5.93;100.00;100989.28;5040688;28;45387;-84
2024/01/06 08:28:11;;;;;;;;;14.00;13.67;;;;;6.40;100.00;101093.13;5052966;28;47846;-83
2024/01/06 08:30:40;;;;;;;;;10.00;7.67;;;;;6.31;100.00;101077.63;5031487;28;45743;-83
2024/01/06 08:33:08;;;;;;;;;8.33;8.00;;;;;6.11;100.00;101034.34;5040148;28;45387;-84
2024/01/06 08:35:44;;;;;;;;;;;;;;;;;;;;;
2024/01/06 08:38:22;;;;;;;;;11.00;9.67;;;;;6.87;100.00;101169.00;5039723;28;75203;-83
2024/01/06 08:40:50;;;;;;;;;9.33;9.00;;;;;6.23;100.00;101069.91;5042826;28;45551;-84
2024/01/06 08:43:16;;;;;;;;;12.00;9.00;;;;;6.77;100.00;101136.81;5028566;28;45431;-84
2024/01/06 08:49:02;;;;;;;;;12.67;10.00;;;;;6.28;100.00;101050.50;5020937;28;46111;-84
2024/01/06 08:51:28;;;;;;;;;8.00;8.00;;;;;6.28;100.00;101063.63;5047517;28;46071;-84
2024/01/06 08:54:03;;;;;;;;;10.33;9.00;;;;;6.22;100.00;101045.41;5040283;28;45476;-83
2024/01/06 08:57:07;;;;;;;;;9.33;9.33;;;;;6.32;100.00;101072.31;5046469;28;45400;-83
2024/01/06 08:59:33;;;;;;;;;10.33;9.33;;;;;6.27;100.00;101082.09;5042076;28;46390;-82
2024/01/06 09:02:07;;;;;;;;;10.00;8.00;;;;;6.76;100.00;101131.59;5045070;28;45411;-83
2024/01/06 09:04:42;;;;;;;;;9.00;7.33;;;;;6.78;100.00;101153.44;5054444;28;45557;-83
2024/01/06 09:07:10;;;;;;;;;9.33;8.33;;;;;6.43;100.00;101093.06;5041469;28;45546;-82
2024/01/06 09:09:36;;;;;;;;;8.00;8.00;;;;;6.18;100.00;101028.00;5042527;28;45893;-82
2024/01/06 09:12:14;;;;;;;;;9.67;8.00;;;;;6.32;100.00;101035.53;5039116;28;45392;-85
2024/01/06 09:14:55;;;;;;;;;9.67;7.67;;;;;6.97;100.00;101141.53;5039366;28;45480;-85
2024/01/06 09:17:39;;;;;;;;;14.33;8.33;;;;;7.01;100.00;101129.16;5053751;28;45489;-84
2024/01/06 09:20:10;;;;;;;;;9.00;8.00;;;;;6.79;100.00;101103.47;5052195;28;45498;-84
2024/01/06 09:22:41;;;;;;;;;8.00;7.00;;;;;6.59;100.00;101058.47;5037916;28;45495;-83
2024/01/06 09:25:16;;;;;;;;;8.67;8.67;;;;;6.94;100.00;101085.53;5053885;28;45551;-84
2024/01/06 09:27:49;;;;;;;;;7.67;7.67;;;;;7.16;100.00;101132.25;5035450;28;45491;-82
2024/01/06 09:30:28;;;;;;;;;;;;;;;;;;;;;
2024/01/06 09:32:56;;;;;;;;;9.00;7.33;;;;;7.28;100.00;101142.44;5036363;28;71679;-83
2024/01/06 09:35:24;;;;;;;;;8.00;8.00;;;;;7.03;100.00;101072.16;5053973;28;45519;-83
2024/01/06 09:37:52;;;;;;;;;9.33;8.33;;;;;7.25;100.00;101126.75;5037622;28;45531;-83
2024/01/06 09:40:31;;;;;;;;;7.00;7.00;;;;;6.99;100.00;101055.59;5036707;28;45453;-82
2024/01/06 09:42:57;;;;;;;;;8.00;7.00;;;;;7.68;100.00;101180.75;5054170;28;45704;-82
2024/01/06 09:45:22;;;;;;;;;9.67;8.33;;;;;7.66;100.00;101167.63;5040403;28;45335;-83
2024/01/06 09:47:50;;;;;;;;;10.00;7.00;;;;;7.57;100.00;101165.28;5039368;28;45603;-82
2024/01/06 09:50:21;;;;;;;;;8.33;7.33;;;;;7.68;100.00;101152.69;5051682;28;45573;-83
2024/01/06 09:52:56;;;;;;;;;9.33;6.00;;;;;7.35;100.00;101119.44;5040189;28;45535;-84
2024/01/06 09:55:26;;;;;;;;;5.00;4.00;;;;;8.15;100.00;101250.44;5040371;28;45449;-82
2024/01/06 09:57:53;;;;;;;;;7.33;3.67;;;;;7.68;100.00;101172.88;5054612;28;45719;-82
2024/01/06 10:00:22;;;;;;;;;8.00;5.67;;;;;7.64;100.00;101151.03;5038214;28;46951;-83
2024/01/06 10:02:49;;;;;;;;;8.33;6.33;;;;;7.50;100.00;101128.66;5038751;28;45403;-83
2024/01/06 10:05:21;;;;;;;;;5.33;3.00;;;;;7.78;100.00;101167.28;5053763;28;45538;-82
2024/01/06 10:07:47;;;;;;;;;3.33;3.33;;;;;7.91;100.00;101190.63;5041137;28;45864;-83
2024/01/06 10:10:18;;;;;;;;;6.00;5.00;;;;;7.83;100.00;101194.34;5054243;28;47142;-83
2024/01/06 10:12:47;;;;;;;;;4.00;3.00;;;;;7.39;100.00;101123.72;5054099;28;45719;-82
2024/01/06 10:15:30;;;;;;;;;6.00;6.00;;;;;7.72;100.00;101163.97;5053265;28;45686;-83
2024/01/06 10:18:13;;;;;;;;;7.67;4.00;;;;;7.46;100.00;101148.91;5051463;28;45416;-82
2024/01/06 10:20:38;;;;;;;;;3.33;3.33;;;;;7.40;100.00;101135.94;5031757;28;45496;-82
2024/01/06 10:23:05;;;;;;;;;3.00;3.00;;;;;7.44;100.00;101145.47;5053287;28;45246;-83
2024/01/06 10:25:32;;;;;;;;;2.33;1.33;;;;;7.91;100.00;101214.31;5035429;28;45407;-81
2024/01/06 10:28:00;;;;;;;;;4.00;4.00;;;;;7.36;100.00;101139.59;5053839;28;45436;-81
2024/01/06 10:30:26;;;;;;;;;4.67;3.00;;;;;7.46;100.00;101141.03;5038387;28;45625;-81
2024/01/06 10:32:51;;;;;;;;;6.67;5.00;;;;;7.90;100.00;101237.16;5037667;28;45683;-82
2024/01/06 10:51:34;;;;;;;;;6.00;6.00;;;;;7.90;100.00;101247.69;5098727;27;45254;-67
2024/01/06 10:54:01;;;;;;;;;5.00;5.00;;;;;7.94;100.00;101227.38;5077058;28;45353;-67
2024/01/06 10:56:26;;;;;;;;;3.00;3.00;;;;;8.03;100.00;101235.00;5074943;28;45354;-67
2024/01/06 10:58:53;;;;;;;;;3.67;3.67;;;;;8.12;100.00;101238.22;5076733;27;45376;-67
2024/01/06 11:01:21;;;;;;;;;5.33;3.33;;;;;8.13;100.00;101242.59;5075586;28;46181;-68
2024/01/06 11:03:48;;;;;;;;;3.00;3.00;;;;;8.14;100.00;101254.00;5079132;27;45265;-67
2024/01/06 11:06:14;;;;;;;;;3.00;3.00;;;;;8.16;100.00;101250.41;5076738;27;45245;-67
2024/01/06 11:09:03;;;;;;;;;2.00;2.00;;;;;8.17;100.00;101243.38;5076817;27;45417;-67
2024/01/06 11:11:30;;;;;;;;;3.00;3.00;;;;;8.26;100.00;101238.69;5079076;27;45404;-67
2024/01/06 11:14:24;;;;;;;;;3.00;3.00;;;;;8.34;100.00;101234.06;5077416;27;45775;-68
2024/01/06 11:16:50;;;;;;;;;4.00;4.00;;;;;8.34;100.00;101234.06;5074958;28;45281;-67
2024/01/06 11:19:33;;;;;;;;;3.00;3.00;;;;;8.41;99.77;101239.16;5076176;27;45439;-67
2024/01/06 11:22:26;;;;;;;;;2.33;2.33;;;;;8.43;98.90;101240.84;5087364;27;45396;-67
2024/01/06 11:24:56;;;;;;;;;2.33;2.00;;;;;8.49;100.00;101231.88;5071738;27;45421;-67
2024/01/06 11:27:28;;;;;;;;;4.00;4.00;;;;;8.52;98.91;101242.31;5079506;27;45384;-67
2024/01/06 11:29:55;;;;;;;;;3.00;3.00;;;;;8.58;97.03;101235.06;5080720;27;45384;-68
2024/01/06 11:32:27;;;;;;;;;4.00;3.00;;;;;8.62;96.81;101230.56;5076464;27;46138;-67
2024/01/06 11:34:55;;;;;;;;;2.33;2.33;;;;;8.49;93.82;101203.72;5076684;27;45308;-68
2024/01/06 11:37:45;;;;;;;;;4.00;3.67;;;;;8.68;97.19;101227.72;5091766;27;45247;-67
2024/01/06 11:40:21;;;;;;;;;3.67;3.33;;;;;8.67;94.58;101234.75;5065668;27;45452;-67
2024/01/06 11:43:11;;;;;;;;;3.33;3.00;;;;;8.69;93.70;101227.69;5075256;27;46626;-67
2024/01/06 11:45:40;;;;;;;;;0.00;0.00;;;;;8.55;91.26;101205.31;5072916;28;45280;-67
2024/01/06 11:48:08;;;;;;;;;2.67;1.00;;;;;8.56;90.62;101220.22;5080347;27;45361;-67
2024/01/06 11:50:38;;;;;;;;;2.67;2.00;;;;;8.56;90.79;101233.41;5074025;27;45822;-67
2024/01/06 11:53:05;;;;;;;;;5.33;2.00;;;;;8.49;90.60;101222.19;5060217;28;46034;-67
2024/01/06 11:55:31;;;;;;;;;2.00;2.00;;;;;8.49;90.16;101218.69;5061158;28;45274;-68
2024/01/06 11:58:01;;;;;;;;;1.00;1.00;;;;;8.51;88.37;101217.72;5060662;28;45356;-67
2024/01/06 12:00:27;;;;;;;;;0.67;0.00;;;;;8.49;91.40;101206.38;5063027;28;45556;-67
2024/01/06 12:02:56;;;;;;;;;2.00;1.00;;;;;8.55;91.21;101206.16;5061517;28;45227;-67
2024/01/06 12:05:24;;;;;;;;;1.00;1.00;;;;;8.52;91.52;101211.53;5059920;28;45402;-67
2024/01/06 12:07:57;;;;;;;;;0.67;0.67;;;;;8.34;88.10;101181.34;5060719;28;45491;-67
2024/01/06 12:10:23;;;;;;;;;2.67;1.00;;;;;8.56;88.13;101201.75;5061042;28;45254;-67
2024/01/06 12:13:17;;;;;;;;;1.67;0.33;;;;;8.53;85.82;101202.72;5061204;28;45452;-66
2024/01/06 12:15:42;;;;;;;;;2.67;1.00;;;;;8.33;86.45;101177.00;5060479;28;45365;-67